Concord, PA (17217)

2:41 PM EST on January 29, 2015 (GMT -0500)
Hill Valley | Change Station
CLOSE
Current Station
Personal Weather Station
Location: Mount Union, PA
Elevation: 633 ft
Nearby Weather Stations
Active Advisory: Winter Weather Advisory

Elev 633 ft 40.35 °N, 77.90 °W | Updated 0 second ago

Overcast
Overcast
27.7 °F
Feels Like 28 °F
N
0.0
Wind Variable Wind from North
Gusts 0.0 mph

Today
High -- | Low -- °F
--% Chance of Precip.
Yesterday
High -- | Low -- °F
Precip. -- in
7:22 AM 5:25 PM
Waxing Gibbous, 76% visible
Pressure 30.04 in
Visibility 10.0 miles
Clouds Overcast 5000 ft
Windchill 28 °F
Dew Point 9 °F
Humidity 44%
Rainfall 0.00 in
Snow Depth Not available.
UV 1 out of 12
Pollen .10 out of 12
Air Quality Not available.
Flu Activity Not available.
METAR KAOO 291853Z AUTO 21004KT 10SM OVC050 M03/M12 A2996 RMK AO2 UPB32E46 SLP172 P0000 T10281117

More Conditions Fewer Conditions

Pressure 30.04 in
Visibility 10.0 miles
Clouds Overcast 5000 ft
Windchill 28 °F
Dew Point 9 °F
Humidity 44%
Rainfall 0.00 in
Snow Depth Not available.
UV 1 out of 12
Pollen .10 out of 12
Air Quality Not available.
Flu Activity Not available.
METAR KAOO 291853Z AUTO 21004KT 10SM OVC050 M03/M12 A2996 RMK AO2 UPB32E46 SLP172 P0000 T10281117

More Conditions Fewer Conditions

Nowcast | as of 2:01 PM EST on January 29, 2015

Patchy light snow will be across the middle and lower Susquehanna valley through 430 PM. The snow will become more widespread by late afternoon. Some freezing rain and sleet could mix with the snow at times. The bands of snow are moving northeast at 25 mph. Persons traveling this afternoon should be alert for icy spots and allow extra travel time.

×

10-Day Weather Forecast

Almanac

Astronomy

Jan. 29, 2015 Rise Set
Actual Time
Civil Twilight
Nautical Twilight
Astronomical Twilight
Moon
Length of Visible Light
Length of Day
Tomorrow will be .
, % of the Moon is Illuminated

Today's Extremes

State Highs State Lows

Community

WunderPhotos

Upload Photos

1,791,568 photos uploaded!

WunderBlogs® & News

Nearby

Air Quality

  Air Quality AQ Index Pollutant
Not available.

Snow Depth

Station Depth Elevation

Earthquake Activity

City Distance Mag. Time & Date
Minimum magnitude displayed is 2.5.

Coastal Water Temperatures

Place Temperature

Nearby Weather Stations